Time;durP1;ratioP1;P1;durP2;ratioP2;P2;SDS_P1;SDS_P2;PMS_P1;PMS_P2;Temp;Humidity;BMP_temperature;BMP_pressure;BME280_temperature;BME280_humidity;BME280_pressure;Samples;Min_cycle;Max_cycle;Signal;HPM_P1;HPM_P2
2023/06/15 00:00:48;;;;;;;7.07;5.20;;;17.40;85.80;;;;;;5040385;28;20446;-73
2023/06/15 00:03:16;;;;;;;8.57;4.47;;;17.30;86.20;;;;;;5035876;28;20474;-73
2023/06/15 00:05:43;;;;;;;5.70;4.03;;;17.30;86.60;;;;;;5030631;28;20766;-73
2023/06/15 00:08:10;;;;;;;7.40;4.30;;;17.30;86.70;;;;;;5034429;28;20456;-72
2023/06/15 00:10:37;;;;;;;4.07;3.40;;;17.20;86.90;;;;;;5042385;28;20469;-72
2023/06/15 00:13:04;;;;;;;6.43;3.92;;;17.10;87.40;;;;;;5045081;28;20511;-72
2023/06/15 00:15:31;;;;;;;5.60;4.40;;;17.10;87.50;;;;;;5048956;28;20700;-72
2023/06/15 00:18:01;;;;;;;6.35;3.75;;;17.10;88.00;;;;;;5034271;28;20228;-72
2023/06/15 00:20:29;;;;;;;7.57;5.53;;;17.00;88.40;;;;;;5042512;28;20637;-72
2023/06/15 00:22:57;;;;;;;5.43;4.93;;;17.00;88.50;;;;;;5045243;28;21055;-71
2023/06/15 00:25:24;;;;;;;5.45;4.63;;;17.00;88.70;;;;;;5047515;28;20262;-71
2023/06/15 00:27:51;;;;;;;5.37;4.20;;;17.00;89.30;;;;;;5045109;28;20254;-71
2023/06/15 00:30:19;;;;;;;7.10;4.03;;;16.90;89.70;;;;;;5039755;28;20562;-74
2023/06/15 00:32:46;;;;;;;5.43;4.90;;;16.90;89.90;;;;;;5031431;28;20253;-74
2023/06/15 00:35:14;;;;;;;9.85;4.57;;;16.90;90.10;;;;;;5036043;28;20241;-74
2023/06/15 00:37:41;;;;;;;5.30;4.20;;;16.90;90.20;;;;;;5030529;28;20671;-71
2023/06/15 00:40:09;;;;;;;4.60;4.20;;;16.80;90.40;;;;;;5037061;28;20633;-72
2023/06/15 00:42:36;;;;;;;5.30;4.50;;;16.70;90.50;;;;;;5033809;28;20327;-71
2023/06/15 00:45:04;;;;;;;8.02;4.40;;;16.70;90.50;;;;;;5028919;28;20220;-71
2023/06/15 00:47:33;;;;;;;5.65;4.25;;;16.70;90.70;;;;;;5034401;28;20609;-72
2023/06/15 00:50:01;;;;;;;4.17;3.77;;;16.60;90.80;;;;;;5038985;28;20861;-74
2023/06/15 00:52:30;;;;;;;5.63;4.15;;;16.60;91.00;;;;;;5029591;28;20511;-71
2023/06/15 00:54:57;;;;;;;5.47;3.90;;;16.50;91.30;;;;;;5036317;28;20268;-74
2023/06/15 00:57:24;;;;;;;4.65;4.25;;;16.50;91.40;;;;;;5035432;28;20295;-72
2023/06/15 00:59:51;;;;;;;7.75;3.90;;;16.50;91.50;;;;;;5036817;28;20221;-73
2023/06/15 01:02:24;;;;;;;5.68;4.13;;;16.50;91.60;;;;;;5038113;28;20226;-71
2023/06/15 01:04:51;;;;;;;4.97;4.13;;;16.40;91.70;;;;;;5039447;28;20220;-72
2023/06/15 01:07:20;;;;;;;5.95;3.88;;;16.40;91.70;;;;;;5031103;28;20232;-72
2023/06/15 01:09:49;;;;;;;10.02;4.97;;;16.40;91.70;;;;;;5035791;28;20220;-73
2023/06/15 01:12:17;;;;;;;6.80;4.13;;;16.30;91.70;;;;;;5040446;28;20229;-71
2023/06/15 01:14:44;;;;;;;5.50;3.70;;;16.30;91.80;;;;;;5040355;28;20247;-72
2023/06/15 01:17:15;;;;;;;6.55;5.88;;;16.20;91.90;;;;;;5044428;28;20199;-72
2023/06/15 01:19:53;;;;;;;3.95;3.60;;;16.20;92.00;;;;;;5040900;28;20203;-72
2023/06/15 01:22:29;;;;;;;5.13;4.07;;;16.20;92.10;;;;;;5013651;28;20243;-72
2023/06/15 01:25:10;;;;;;;9.82;4.10;;;16.10;92.10;;;;;;5023145;28;20218;-72
2023/06/15 01:27:41;;;;;;;4.22;3.72;;;16.10;92.20;;;;;;5032537;28;20208;-73
2023/06/15 01:30:10;;;;;;;5.05;4.30;;;16.00;92.30;;;;;;5035962;28;20198;-71
2023/06/15 01:32:38;;;;;;;5.80;4.68;;;16.00;92.50;;;;;;5034485;28;20309;-72
2023/06/15 01:35:06;;;;;;;6.78;3.95;;;16.00;92.50;;;;;;5041410;28;20285;-71
2023/06/15 01:37:32;;;;;;;5.68;4.10;;;15.90;92.70;;;;;;5037931;28;20248;-70
2023/06/15 01:40:00;;;;;;;4.38;3.80;;;15.90;92.70;;;;;;5043173;28;20240;-72
2023/06/15 01:42:27;;;;;;;7.22;5.07;;;15.80;92.90;;;;;;5027819;28;20221;-73
2023/06/15 01:44:57;;;;;;;11.00;5.03;;;15.80;92.80;;;;;;5033929;28;20303;-73
2023/06/15 01:47:26;;;;;;;10.40;4.50;;;15.80;93.00;;;;;;5031300;28;20279;-71
2023/06/15 01:49:53;;;;;;;4.88;4.05;;;15.70;93.10;;;;;;5040642;28;20203;-70
2023/06/15 01:52:20;;;;;;;4.65;3.38;;;15.70;93.20;;;;;;5041919;28;20239;-73
2023/06/15 01:54:47;;;;;;;6.50;4.15;;;15.60;93.20;;;;;;5042553;28;20207;-71
2023/06/15 01:57:14;;;;;;;6.90;4.53;;;15.60;93.30;;;;;;5036951;28;20304;-73
2023/06/15 01:59:41;;;;;;;7.07;4.28;;;15.60;93.40;;;;;;5042254;28;20305;-72
2023/06/15 02:02:11;;;;;;;7.13;4.30;;;15.50;93.30;;;;;;5040841;28;20237;-73
2023/06/15 02:04:38;;;;;;;5.95;4.10;;;15.50;93.30;;;;;;5039689;28;20648;-73
2023/06/15 02:07:05;;;;;;;6.32;4.20;;;15.50;93.50;;;;;;5040138;28;20713;-72
2023/06/15 02:09:32;;;;;;;7.05;3.70;;;15.50;93.50;;;;;;5043472;28;20230;-71
2023/06/15 02:11:59;;;;;;;5.55;4.35;;;15.50;93.50;;;;;;5041832;28;20282;-71
2023/06/15 02:14:27;;;;;;;4.95;4.00;;;15.50;93.50;;;;;;5033615;28;20275;-72
2023/06/15 02:16:56;;;;;;;6.00;4.35;;;15.40;93.60;;;;;;5032802;28;20193;-72
2023/06/15 02:19:24;;;;;;;7.55;4.72;;;15.40;93.70;;;;;;5039406;28;20610;-73
2023/06/15 02:21:51;;;;;;;4.40;4.00;;;15.30;93.70;;;;;;5039425;28;20283;-72
2023/06/15 02:24:19;;;;;;;5.20;4.47;;;15.30;93.90;;;;;;5041117;28;20322;-74
2023/06/15 02:26:47;;;;;;;7.22;3.88;;;15.30;94.20;;;;;;5035499;28;20652;-70
2023/06/15 02:29:14;;;;;;;5.18;3.95;;;15.30;94.40;;;;;;5039301;28;20210;-71
2023/06/15 02:31:41;;;;;;;4.68;3.70;;;15.20;94.50;;;;;;5037388;28;20250;-71
2023/06/15 02:34:08;;;;;;;4.75;3.97;;;15.20;94.70;;;;;;5035298;28;20313;-73
2023/06/15 02:36:37;;;;;;;5.95;3.97;;;15.20;94.90;;;;;;5038105;28;20279;-72
2023/06/15 02:39:05;;;;;;;9.02;4.47;;;15.20;95.10;;;;;;5040053;28;20206;-71
2023/06/15 02:41:31;;;;;;;5.55;4.32;;;15.10;95.00;;;;;;5033934;28;20231;-73
2023/06/15 02:43:58;;;;;;;6.65;4.20;;;15.20;95.10;;;;;;5038323;28;20304;-72
2023/06/15 02:46:25;;;;;;;5.75;4.20;;;15.20;95.20;;;;;;5029006;28;20207;-72
2023/06/15 02:48:53;;;;;;;5.30;4.05;;;15.10;95.20;;;;;;5037546;28;20667;-70
2023/06/15 02:51:20;;;;;;;4.28;3.70;;;15.10;95.20;;;;;;5035023;28;20203;-72
2023/06/15 02:53:49;;;;;;;6.32;4.40;;;15.10;95.30;;;;;;5035057;28;20224;-69
2023/06/15 02:56:19;;;;;;;8.32;4.35;;;15.10;95.30;;;;;;5034740;28;20283;-71
2023/06/15 02:58:47;;;;;;;7.18;4.65;;;15.00;95.50;;;;;;5034820;28;20219;-73
2023/06/15 03:01:16;;;;;;;9.13;4.32;;;15.00;95.60;;;;;;5032336;28;20223;-70
2023/06/15 03:03:43;;;;;;;5.90;4.53;;;14.90;95.70;;;;;;5041572;28;20223;-73
2023/06/15 03:06:11;;;;;;;6.82;4.75;;;14.90;95.90;;;;;;5041761;28;20212;-70
2023/06/15 03:08:38;;;;;;;4.75;3.83;;;14.90;95.90;;;;;;5046397;28;20239;-72
2023/06/15 03:11:07;;;;;;;7.03;4.60;;;15.00;95.80;;;;;;5048241;28;20286;-71
2023/06/15 03:13:34;;;;;;;7.13;4.07;;;14.90;95.90;;;;;;5043808;28;20224;-73
2023/06/15 03:16:01;;;;;;;8.23;6.00;;;14.90;95.90;;;;;;5036374;28;20205;-71
2023/06/15 03:18:29;;;;;;;7.95;4.57;;;14.90;96.10;;;;;;5046592;28;20210;-70
2023/06/15 03:20:57;;;;;;;6.18;4.07;;;15.00;96.10;;;;;;5048324;28;20204;-71
2023/06/15 03:23:24;;;;;;;7.22;4.35;;;15.00;95.90;;;;;;5042666;28;20224;-71
2023/06/15 03:25:51;;;;;;;7.57;5.03;;;15.00;95.90;;;;;;5042448;28;20212;-71
2023/06/15 03:28:23;;;;;;;5.60;4.63;;;15.00;96.00;;;;;;5039074;28;20207;-74
2023/06/15 03:30:52;;;;;;;5.22;4.10;;;15.10;96.10;;;;;;5046712;28;20238;-73
2023/06/15 03:33:21;;;;;;;6.65;4.60;;;15.10;95.80;;;;;;5046827;28;20300;-69
2023/06/15 03:35:49;;;;;;;5.55;4.63;;;15.10;95.90;;;;;;5051367;28;20223;-69
2023/06/15 03:38:17;;;;;;;4.47;4.07;;;15.20;95.90;;;;;;5047615;28;20191;-70
2023/06/15 03:40:44;;;;;;;6.07;4.95;;;15.20;95.70;;;;;;5036265;28;20224;-70
2023/06/15 03:43:11;;;;;;;5.43;4.70;;;15.30;95.70;;;;;;5040737;28;20221;-71
2023/06/15 03:45:40;;;;;;;6.07;4.53;;;15.40;95.70;;;;;;5038791;28;20306;-71
2023/06/15 03:48:08;;;;;;;5.68;4.32;;;15.40;95.60;;;;;;5042846;28;20236;-72
2023/06/15 03:50:35;;;;;;;4.88;4.30;;;15.50;95.40;;;;;;5043537;28;20239;-72
2023/06/15 03:53:02;;;;;;;5.15;4.43;;;15.60;95.30;;;;;;5046626;28;20222;-73
2023/06/15 03:55:30;;;;;;;8.35;4.13;;;15.60;95.20;;;;;;5038138;28;20215;-74
2023/06/15 03:57:57;;;;;;;6.55;4.65;;;15.70;94.90;;;;;;5044074;28;20721;-71
2023/06/15 04:00:24;;;;;;;5.18;4.55;;;15.80;94.80;;;;;;5038540;28;20299;-73
2023/06/15 04:02:53;;;;;;;6.80;4.80;;;15.90;94.80;;;;;;5038364;28;20307;-69
2023/06/15 04:05:22;;;;;;;9.10;5.53;;;16.10;94.50;;;;;;5042526;28;20698;-70
2023/06/15 04:07:49;;;;;;;7.70;4.95;;;16.50;94.20;;;;;;5039633;28;20211;-70
2023/06/15 04:10:16;;;;;;;7.33;5.13;;;17.20;93.30;;;;;;5039853;28;20238;-70
2023/06/15 04:12:42;;;;;;;8.83;4.97;;;17.90;92.10;;;;;;5041746;28;20543;-70
2023/06/15 04:15:11;;;;;;;7.10;5.67;;;18.60;90.80;;;;;;5043386;28;20525;-70
2023/06/15 04:17:37;;;;;;;8.90;5.20;;;19.30;89.50;;;;;;5034288;28;20806;-71
2023/06/15 04:20:08;;;;;;;10.17;4.93;;;19.90;87.00;;;;;;5038278;28;20452;-69
2023/06/15 04:22:35;;;;;;;8.57;5.83;;;20.30;84.70;;;;;;5039673;28;20902;-71
2023/06/15 04:25:02;;;;;;;7.27;5.70;;;20.40;83.30;;;;;;5044616;28;21019;-70
2023/06/15 04:27:31;;;;;;;5.97;5.33;;;20.70;82.70;;;;;;5038273;28;20453;-71
2023/06/15 04:29:58;;;;;;;8.37;5.03;;;21.30;81.50;;;;;;5036067;28;21924;-72
2023/06/15 04:32:29;;;;;;;5.83;5.23;;;21.20;80.20;;;;;;5040851;28;20528;-69
2023/06/15 04:34:57;;;;;;;8.53;6.10;;;20.90;80.00;;;;;;5038622;28;20446;-70
2023/06/15 04:37:28;;;;;;;11.03;5.03;;;21.00;80.80;;;;;;5042068;28;20446;-67
2023/06/15 04:39:56;;;;;;;10.83;5.53;;;21.50;80.10;;;;;;5042554;28;20447;-70
2023/06/15 04:42:23;;;;;;;8.83;5.03;;;22.20;78.50;;;;;;5042829;28;20541;-72
2023/06/15 04:44:50;;;;;;;8.63;5.20;;;22.80;76.70;;;;;;5033914;28;20453;-71
2023/06/15 04:47:20;;;;;;;5.60;5.10;;;23.40;75.50;;;;;;5034175;28;20448;-70
2023/06/15 04:49:47;;;;;;;5.40;4.87;;;23.40;73.50;;;;;;5041664;28;20529;-69
2023/06/15 04:52:15;;;;;;;7.93;5.77;;;23.10;73.30;;;;;;5036161;28;20554;-69
2023/06/15 04:54:43;;;;;;;5.20;4.40;;;22.80;74.00;;;;;;5037802;28;20461;-69
2023/06/15 04:57:10;;;;;;;7.60;4.90;;;22.20;74.70;;;;;;5031875;28;20470;-69
2023/06/15 04:59:39;;;;;;;6.37;5.07;;;21.80;76.00;;;;;;5031780;28;20457;-69
2023/06/15 05:02:07;;;;;;;13.27;6.10;;;21.60;77.20;;;;;;5042867;28;20450;-69
2023/06/15 05:04:34;;;;;;;6.20;5.60;;;21.60;77.70;;;;;;5045097;28;20442;-71
2023/06/15 05:07:01;;;;;;;5.73;5.13;;;21.90;77.40;;;;;;5032980;28;20568;-69
2023/06/15 05:09:28;;;;;;;6.40;4.63;;;22.30;76.20;;;;;;5041827;28;20440;-71
2023/06/15 05:11:57;;;;;;;6.27;4.97;;;22.80;75.50;;;;;;5040713;28;20444;-70
2023/06/15 05:14:26;;;;;;;5.57;5.07;;;23.00;74.40;;;;;;5040242;28;20545;-69
2023/06/15 05:16:54;;;;;;;12.50;6.30;;;23.00;74.40;;;;;;5036145;28;20452;-70
2023/06/15 05:19:21;;;;;;;9.83;5.90;;;22.80;74.60;;;;;;5029557;28;20444;-73
2023/06/15 05:21:51;;;;;;;9.80;4.60;;;22.60;74.30;;;;;;5035653;28;20455;-71
2023/06/15 05:24:18;;;;;;;6.10;5.50;;;22.70;74.30;;;;;;5038507;28;20925;-69
2023/06/15 05:26:46;;;;;;;8.40;5.20;;;22.50;74.10;;;;;;5042850;28;20530;-71
2023/06/15 05:29:15;;;;;;;9.60;6.40;;;22.40;75.00;;;;;;5036160;28;20955;-70
2023/06/15 05:31:42;;;;;;;9.10;5.43;;;22.80;75.50;;;;;;5037000;28;20454;-70
2023/06/15 05:34:09;;;;;;;9.20;5.00;;;23.70;73.80;;;;;;5029198;28;20900;-69
2023/06/15 05:36:37;;;;;;;5.30;4.80;;;24.50;71.80;;;;;;5038037;28;20477;-70
2023/06/15 05:39:04;;;;;;;5.53;5.03;;;24.80;70.00;;;;;;5035605;28;20454;-69
2023/06/15 05:41:31;;;;;;;4.80;4.30;;;25.20;69.60;;;;;;5041600;28;20460;-72
2023/06/15 05:43:59;;;;;;;10.10;4.87;;;25.90;68.20;;;;;;5033846;28;20471;-69
2023/06/15 05:46:29;;;;;;;9.90;5.10;;;26.70;66.10;;;;;;5043471;28;20516;-69
2023/06/15 05:48:57;;;;;;;6.17;5.10;;;26.90;64.50;;;;;;5042134;28;20454;-69
2023/06/15 05:51:24;;;;;;;6.73;5.27;;;27.40;63.90;;;;;;5033037;28;20443;-71
2023/06/15 05:53:58;;;;;;;6.93;4.63;;;27.90;62.90;;;;;;5042615;28;20498;-71
2023/06/15 05:56:26;;;;;;;9.20;5.43;;;28.70;60.80;;;;;;5038460;28;20513;-70
2023/06/15 05:58:52;;;;;;;9.23;5.70;;;29.20;59.50;;;;;;5042820;28;20545;-71
2023/06/15 06:01:28;;;;;;;7.00;5.80;;;29.70;58.40;;;;;;5036406;28;20542;-69
2023/06/15 06:03:55;;;;;;;5.63;5.03;;;30.10;57.70;;;;;;5026447;28;20522;-67
2023/06/15 06:06:22;;;;;;;6.03;4.87;;;30.60;56.70;;;;;;5034361;28;20482;-70
2023/06/15 06:08:49;;;;;;;5.10;4.60;;;31.10;55.10;;;;;;5029685;28;20897;-72
2023/06/15 06:11:16;;;;;;;5.53;5.03;;;31.80;53.30;;;;;;5032641;28;20444;-73
2023/06/15 06:13:43;;;;;;;5.70;5.20;;;32.40;52.60;;;;;;5032689;28;20985;-71
2023/06/15 06:16:10;;;;;;;5.27;4.63;;;32.70;51.40;;;;;;5036527;28;20932;-71
2023/06/15 06:18:39;;;;;;;10.20;4.37;;;32.80;50.40;;;;;;5041394;28;21040;-70
2023/06/15 06:21:06;;;;;;;7.60;4.17;;;33.20;50.10;;;;;;5035412;28;20444;-71
2023/06/15 06:23:34;;;;;;;5.93;5.33;;;33.50;49.70;;;;;;5037876;28;20537;-72
2023/06/15 06:26:01;;;;;;;4.60;4.20;;;33.50;48.60;;;;;;5038418;28;20470;-72
2023/06/15 06:28:30;;;;;;;4.90;4.50;;;33.80;47.90;;;;;;5041153;28;20482;-69
2023/06/15 06:30:57;;;;;;;7.77;4.70;;;33.80;48.20;;;;;;5036654;28;20450;-74
2023/06/15 06:33:24;;;;;;;5.43;4.50;;;33.40;48.70;;;;;;5038339;28;20472;-74
2023/06/15 06:35:52;;;;;;;4.73;4.13;;;33.20;48.60;;;;;;5023707;28;20444;-73
2023/06/15 06:38:19;;;;;;;4.50;4.10;;;32.80;48.70;;;;;;5036201;28;20441;-70
2023/06/15 06:40:46;;;;;;;9.70;4.63;;;32.70;49.30;;;;;;5035914;28;20438;-71
2023/06/15 06:43:15;;;;;;;6.37;3.80;;;32.70;49.00;;;;;;5038945;28;20905;-73
2023/06/15 06:45:42;;;;;;;6.20;4.70;;;33.10;47.90;;;;;;5030978;28;20474;-72
2023/06/15 06:48:09;;;;;;;6.13;4.60;;;33.20;48.30;;;;;;5036563;28;20483;-73
2023/06/15 06:50:36;;;;;;;6.00;5.13;;;33.50;47.70;;;;;;5041420;28;20481;-72
2023/06/15 06:53:06;;;;;;;6.80;4.87;;;34.00;46.20;;;;;;5036070;28;20831;-71
2023/06/15 06:55:34;;;;;;;7.97;4.70;;;34.30;45.70;;;;;;5038273;28;20446;-72
2023/06/15 06:58:04;;;;;;;5.67;4.93;;;34.70;45.50;;;;;;5032146;28;20454;-68
2023/06/15 07:00:31;;;;;;;4.77;4.23;;;35.00;43.90;;;;;;5037057;28;20442;-70
2023/06/15 07:02:59;;;;;;;7.93;5.10;;;34.90;43.70;;;;;;5029991;28;20477;-72
2023/06/15 07:05:26;;;;;;;5.33;4.40;;;35.30;43.40;;;;;;5035183;28;21040;-71
2023/06/15 07:07:52;;;;;;;4.97;4.57;;;35.00;43.50;;;;;;5038530;28;20622;-70
2023/06/15 07:10:21;;;;;;;5.30;4.73;;;35.30;43.40;;;;;;5037611;28;20457;-71
2023/06/15 07:12:48;;;;;;;10.40;5.00;;;35.80;42.70;;;;;;5034028;28;20468;-69
2023/06/15 07:15:15;;;;;;;5.90;4.70;;;36.10;42.10;;;;;;5042752;28;20472;-70
2023/06/15 07:17:42;;;;;;;5.63;4.67;;;36.30;42.00;;;;;;5033824;28;20506;-71
2023/06/15 07:20:09;;;;;;;5.73;5.00;;;36.80;41.00;;;;;;5036297;28;20499;-72
2023/06/15 07:22:36;;;;;;;4.53;3.97;;;36.90;40.70;;;;;;5034094;28;20544;-70
2023/06/15 07:25:04;;;;;;;6.73;6.13;;;36.90;40.20;;;;;;5031425;28;20936;-73
2023/06/15 07:27:32;;;;;;;5.67;5.17;;;36.70;40.40;;;;;;5039812;28;20512;-71
2023/06/15 07:29:59;;;;;;;5.43;4.93;;;36.50;40.20;;;;;;5031775;28;20914;-70
2023/06/15 07:32:26;;;;;;;5.30;4.57;;;36.60;39.00;;;;;;5039218;28;20847;-71
2023/06/15 07:34:53;;;;;;;10.57;5.43;;;37.00;38.30;;;;;;5041072;28;20539;-71
2023/06/15 07:37:19;;;;;;;14.00;4.73;;;37.30;38.80;;;;;;5039975;28;20496;-72
2023/06/15 07:39:46;;;;;;;5.70;5.20;;;37.50;37.70;;;;;;5038015;28;20823;-72
2023/06/15 07:42:14;;;;;;;8.23;5.00;;;37.50;36.60;;;;;;5034123;28;21027;-73
2023/06/15 07:44:42;;;;;;;8.70;5.70;;;37.30;36.90;;;;;;5035643;28;20438;-72
2023/06/15 07:47:10;;;;;;;9.00;5.73;;;37.30;36.10;;;;;;5035640;28;20508;-72
2023/06/15 07:49:37;;;;;;;5.03;4.63;;;37.50;35.20;;;;;;5037100;28;20443;-72
2023/06/15 07:52:04;;;;;;;8.10;5.53;;;37.00;34.70;;;;;;5037706;28;20572;-73
2023/06/15 07:54:31;;;;;;;6.83;5.00;;;36.40;35.40;;;;;;5038625;28;20450;-72
2023/06/15 07:56:58;;;;;;;5.47;4.47;;;36.70;35.80;;;;;;5038817;28;20549;-73
2023/06/15 07:59:25;;;;;;;6.40;5.80;;;36.50;35.90;;;;;;5045033;28;20523;-70
2023/06/15 08:01:55;;;;;;;9.10;6.00;;;36.20;35.90;;;;;;5042832;28;20442;-71
2023/06/15 08:04:22;;;;;;;6.03;4.73;;;36.10;36.10;;;;;;5037379;28;20620;-73
2023/06/15 08:06:49;;;;;;;5.37;4.87;;;36.70;35.10;;;;;;5042114;28;20564;-71
2023/06/15 08:09:16;;;;;;;12.67;5.30;;;36.80;34.60;;;;;;5036584;28;20978;-72
2023/06/15 08:11:44;;;;;;;7.73;4.23;;;36.80;35.50;;;;;;5040422;28;20875;-71
2023/06/15 08:14:11;;;;;;;8.40;5.30;;;36.80;35.70;;;;;;5039993;28;20491;-72
2023/06/15 08:16:38;;;;;;;5.83;4.70;;;36.70;35.30;;;;;;5038564;28;20556;-73
2023/06/15 08:19:06;;;;;;;5.60;4.57;;;36.70;34.80;;;;;;5044332;28;20524;-71
2023/06/15 08:21:34;;;;;;;5.00;4.50;;;37.80;34.00;;;;;;5035497;28;20771;-72
2023/06/15 08:24:01;;;;;;;5.87;5.30;;;37.80;33.60;;;;;;5041248;28;20470;-72
2023/06/15 08:26:28;;;;;;;6.10;5.57;;;38.00;32.80;;;;;;5036426;28;20567;-71
2023/06/15 08:28:55;;;;;;;5.30;4.90;;;37.70;32.00;;;;;;5048378;28;20841;-70
2023/06/15 08:31:22;;;;;;;8.30;6.00;;;38.10;32.60;;;;;;5041078;28;20500;-71
2023/06/15 08:33:49;;;;;;;5.77;5.37;;;38.00;33.00;;;;;;5043017;28;20528;-72
2023/06/15 08:36:18;;;;;;;10.87;5.97;;;37.70;33.40;;;;;;5039885;28;20439;-72
2023/06/15 08:38:44;;;;;;;6.00;5.50;;;37.70;33.50;;;;;;5037838;28;20455;-72
2023/06/15 08:41:12;;;;;;;5.27;4.70;;;38.10;33.60;;;;;;5040512;28;21115;-72
2023/06/15 08:43:43;;;;;;;6.17;5.40;;;38.10;33.20;;;;;;5035740;28;20522;-72
2023/06/15 08:46:11;;;;;;;6.80;4.90;;;37.90;33.20;;;;;;5037792;28;20477;-71
2023/06/15 08:48:39;;;;;;;6.90;6.00;;;37.80;32.50;;;;;;5030390;28;20477;-72
2023/06/15 08:51:07;;;;;;;12.30;6.00;;;38.00;32.70;;;;;;5042409;28;20435;-72
2023/06/15 08:53:37;;;;;;;6.37;5.77;;;37.80;32.80;;;;;;5041921;28;20549;-71
2023/06/15 08:56:10;;;;;;;6.40;5.00;;;37.60;33.00;;;;;;5041292;28;20442;-73
2023/06/15 08:58:37;;;;;;;10.10;5.73;;;37.80;32.60;;;;;;5038655;28;20472;-72
2023/06/15 09:01:05;;;;;;;5.73;4.80;;;37.70;33.40;;;;;;5029994;28;20445;-70
2023/06/15 09:03:33;;;;;;;6.30;5.67;;;37.80;33.70;;;;;;5040853;28;20478;-72
2023/06/15 09:06:01;;;;;;;9.33;5.50;;;37.50;33.10;;;;;;5038597;28;20981;-72
2023/06/15 09:08:27;;;;;;;7.20;5.10;;;37.30;33.10;;;;;;5042536;28;20447;-72
2023/06/15 09:11:08;;;;;;;5.97;5.43;;;37.00;33.20;;;;;;5034664;28;20461;-73
2023/06/15 09:13:35;;;;;;;7.67;5.80;;;36.20;33.50;;;;;;5028393;28;20834;-72
2023/06/15 09:16:05;;;;;;;6.40;5.50;;;35.60;34.70;;;;;;5033734;28;20471;-73
2023/06/15 09:18:45;;;;;;;5.43;5.03;;;35.80;34.50;;;;;;5044130;28;20450;-72
2023/06/15 09:21:14;;;;;;;8.70;5.00;;;36.30;34.10;;;;;;5038943;28;20439;-73
2023/06/15 09:23:44;;;;;;;9.30;5.00;;;36.30;33.90;;;;;;5030133;28;20471;-73
2023/06/15 09:26:21;;;;;;;5.60;5.03;;;36.80;33.50;;;;;;5030481;28;20455;-72
2023/06/15 09:28:48;;;;;;;5.30;4.80;;;37.30;33.10;;;;;;5026616;28;20440;-75
2023/06/15 09:31:30;;;;;;;7.83;5.70;;;37.30;33.20;;;;;;5035320;28;20473;-73
2023/06/15 09:34:04;;;;;;;11.23;5.17;;;36.60;33.90;;;;;;5039271;28;20838;-73
2023/06/15 09:36:38;;;;;;;9.30;6.07;;;36.10;34.50;;;;;;5035886;28;20469;-73
2023/06/15 09:39:05;;;;;;;6.40;5.90;;;35.80;35.10;;;;;;5033521;28;20540;-71
2023/06/15 09:41:35;;;;;;;6.07;5.67;;;35.70;35.20;;;;;;5041036;28;20522;-72
2023/06/15 09:44:03;;;;;;;8.27;5.60;;;35.70;34.20;;;;;;5031003;28;20504;-72
2023/06/15 09:46:31;;;;;;;6.60;4.97;;;35.80;34.60;;;;;;5041415;28;20486;-72
2023/06/15 09:48:57;;;;;;;5.30;4.23;;;35.90;34.10;;;;;;5036272;28;20523;-74
2023/06/15 09:51:29;;;;;;;8.87;5.73;;;36.10;33.90;;;;;;5042270;28;20936;-72
2023/06/15 09:53:57;;;;;;;6.10;5.33;;;36.00;35.10;;;;;;5033495;28;20463;-72
2023/06/15 09:56:26;;;;;;;5.70;5.20;;;36.20;35.10;;;;;;5040687;28;20442;-72
2023/06/15 09:58:55;;;;;;;15.23;5.30;;;36.10;34.70;;;;;;5038444;28;20446;-72
2023/06/15 10:01:26;;;;;;;5.80;4.60;;;36.10;34.60;;;;;;5033301;28;20633;-72
2023/06/15 10:03:55;;;;;;;5.60;5.10;;;36.40;35.00;;;;;;5034095;28;20528;-72
2023/06/15 10:06:26;;;;;;;6.70;5.57;;;36.30;33.90;;;;;;5040516;28;20820;-71
2023/06/15 10:08:57;;;;;;;7.80;5.50;;;36.50;34.50;;;;;;5032328;28;20451;-71
2023/06/15 10:11:26;;;;;;;7.30;5.00;;;36.40;33.90;;;;;;5042103;28;20452;-73
2023/06/15 10:13:58;;;;;;;5.60;5.10;;;35.90;33.60;;;;;;5038141;28;20529;-73
2023/06/15 10:16:27;;;;;;;6.03;5.17;;;35.50;33.80;;;;;;5037880;28;20439;-73
2023/06/15 10:19:02;;;;;;;6.80;5.17;;;34.90;34.80;;;;;;5042036;28;20521;-72
2023/06/15 10:21:31;;;;;;;6.53;5.30;;;35.10;35.30;;;;;;5023628;28;20469;-72
2023/06/15 10:24:05;;;;;;;5.50;5.10;;;34.80;35.60;;;;;;5040445;28;20465;-71
2023/06/15 10:26:32;;;;;;;12.00;5.03;;;34.90;36.00;;;;;;5040171;28;20450;-72
2023/06/15 10:29:06;;;;;;;5.00;4.60;;;35.20;35.40;;;;;;5042874;28;20489;-71
2023/06/15 10:31:41;;;;;;;5.90;5.10;;;35.50;35.40;;;;;;5035825;28;20460;-72
2023/06/15 10:34:14;;;;;;;7.27;5.43;;;35.20;34.80;;;;;;5019786;28;20465;-72
2023/06/15 10:36:48;;;;;;;5.10;4.70;;;34.80;35.00;;;;;;5033273;28;20518;-71
2023/06/15 10:39:20;;;;;;;8.87;5.23;;;33.80;35.70;;;;;;5036952;28;20449;-71
2023/06/15 10:41:51;;;;;;;8.80;5.07;;;32.70;36.50;;;;;;5032652;28;20447;-73
2023/06/15 10:44:20;;;;;;;5.50;5.00;;;31.80;37.50;;;;;;5036408;28;20930;-72
2023/06/15 10:46:46;;;;;;;4.93;4.63;;;31.30;38.90;;;;;;5030848;28;20513;-71
2023/06/15 10:49:14;;;;;;;5.80;5.23;;;31.00;39.00;;;;;;5037221;28;20450;-72
2023/06/15 10:51:42;;;;;;;6.83;5.13;;;30.90;38.40;;;;;;5032721;28;20447;-71
2023/06/15 10:54:22;;;;;;;5.13;4.63;;;30.90;39.00;;;;;;5036698;28;20501;-72
2023/06/15 10:56:50;;;;;;;5.73;4.73;;;31.00;39.10;;;;;;5035997;28;20430;-72
2023/06/15 10:59:38;;;;;;;5.33;4.80;;;31.10;39.40;;;;;;5035029;28;20518;-72
2023/06/15 11:02:39;;;;;;;5.07;4.70;;;31.30;38.40;;;;;;5039917;28;20442;-73
2023/06/15 11:05:08;;;;;;;5.03;4.63;;;31.10;38.30;;;;;;5041532;28;20438;-70
2023/06/15 11:07:37;;;;;;;6.97;5.80;;;31.20;39.20;;;;;;5041216;28;20465;-71
2023/06/15 11:10:12;;;;;;;5.50;4.93;;;31.40;38.60;;;;;;5035337;28;20458;-71
2023/06/15 11:12:40;;;;;;;7.50;4.30;;;31.50;38.60;;;;;;5015712;28;21038;-72
2023/06/15 11:15:10;;;;;;;6.63;5.10;;;31.30;37.90;;;;;;5041462;28;20813;-70
2023/06/15 11:18:05;;;;;;;7.53;5.53;;;31.20;38.60;;;;;;5037521;28;20454;-73
2023/06/15 11:20:43;;;;;;;9.33;5.67;;;31.20;38.10;;;;;;4983712;28;20851;-71
2023/06/15 11:23:11;;;;;;;6.03;4.87;;;31.20;38.40;;;;;;5038762;28;20465;-72
2023/06/15 11:25:43;;;;;;;7.43;4.47;;;31.00;39.20;;;;;;5030222;28;20444;-72
2023/06/15 11:28:11;;;;;;;5.77;5.17;;;31.00;39.60;;;;;;5040168;28;20484;-72
2023/06/15 11:30:41;;;;;;;6.17;5.57;;;30.80;39.90;;;;;;5039164;28;20534;-72
2023/06/15 11:33:12;;;;;;;9.40;5.60;;;30.60;39.80;;;;;;5031833;28;20475;-71
2023/06/15 11:35:39;;;;;;;9.00;5.70;;;30.50;40.10;;;;;;5043867;28;20533;-69
2023/06/15 11:38:07;;;;;;;5.90;5.40;;;30.50;41.30;;;;;;5044035;28;20452;-71
2023/06/15 11:40:34;;;;;;;5.63;5.10;;;30.80;41.40;;;;;;5041704;28;20446;-72
2023/06/15 11:43:02;;;;;;;6.00;5.30;;;31.00;40.90;;;;;;5036631;28;20464;-71
2023/06/15 11:45:29;;;;;;;8.20;5.47;;;31.20;41.10;;;;;;5038057;28;20449;-76
2023/06/15 11:47:57;;;;;;;5.77;5.27;;;31.40;40.70;;;;;;5040143;28;20488;-71
2023/06/15 11:50:25;;;;;;;5.40;4.90;;;31.40;40.10;;;;;;5041436;28;20442;-73
2023/06/15 11:52:51;;;;;;;5.40;4.90;;;31.40;39.80;;;;;;5044944;28;20477;-73
2023/06/15 11:55:20;;;;;;;7.47;5.33;;;31.10;39.80;;;;;;5035376;28;20501;-71
2023/06/15 11:57:48;;;;;;;6.53;4.93;;;30.90;39.80;;;;;;5036714;28;20509;-72
2023/06/15 12:00:15;;;;;;;6.10;4.80;;;30.60;40.40;;;;;;5045349;28;20448;-71
2023/06/15 12:02:42;;;;;;;7.67;5.00;;;30.60;41.00;;;;;;5025087;28;20453;-73
2023/06/15 12:05:12;;;;;;;5.77;5.20;;;30.40;41.00;;;;;;5045545;28;20443;-72
2023/06/15 12:07:39;;;;;;;5.30;4.80;;;30.40;41.20;;;;;;5041850;28;20488;-72
2023/06/15 12:10:11;;;;;;;11.83;5.23;;;30.40;41.30;;;;;;5042185;28;20501;-71
2023/06/15 12:12:38;;;;;;;5.20;4.73;;;30.20;42.40;;;;;;5043348;28;20871;-72
2023/06/15 12:15:07;;;;;;;10.63;5.40;;;30.10;41.90;;;;;;5043715;28;20521;-73
2023/06/15 12:17:35;;;;;;;5.60;5.13;;;30.20;41.50;;;;;;5042816;28;20489;-72
2023/06/15 12:20:05;;;;;;;5.40;4.90;;;30.40;41.70;;;;;;5045269;28;20856;-71
2023/06/15 12:22:37;;;;;;;7.27;5.90;;;30.30;41.20;;;;;;5039274;28;20519;-73
2023/06/15 12:25:05;;;;;;;5.23;4.73;;;30.40;40.80;;;;;;5043183;28;20496;-71
2023/06/15 12:27:33;;;;;;;5.80;4.90;;;30.40;40.80;;;;;;5040602;28;20481;-72
2023/06/15 12:30:09;;;;;;;6.70;6.07;;;30.60;40.90;;;;;;5039040;28;20439;-73
2023/06/15 12:32:36;;;;;;;5.50;4.90;;;30.50;41.20;;;;;;5040260;28;20462;-70
2023/06/15 12:35:04;;;;;;;6.23;5.30;;;30.40;41.40;;;;;;5044177;28;20458;-73
2023/06/15 12:37:31;;;;;;;6.57;5.07;;;30.00;41.40;;;;;;5042215;28;20537;-73
2023/06/15 12:39:59;;;;;;;6.27;5.67;;;29.70;41.40;;;;;;5037438;28;20813;-71
2023/06/15 12:42:26;;;;;;;5.80;5.23;;;29.50;42.30;;;;;;5045185;28;20554;-70
2023/06/15 12:44:53;;;;;;;5.50;5.10;;;29.20;43.30;;;;;;5039429;28;20438;-72
2023/06/15 12:47:20;;;;;;;5.70;5.20;;;29.00;43.80;;;;;;5046783;28;20538;-72
2023/06/15 12:49:47;;;;;;;6.23;5.30;;;28.80;44.40;;;;;;5035838;28;20462;-72
2023/06/15 12:52:15;;;;;;;6.10;5.60;;;28.80;45.00;;;;;;5039198;28;20465;-73